createdAt,value
2019-02-24T00:00:56.155Z,96664.12
2019-02-24T00:03:22.472Z,96666.03
2019-02-24T00:05:48.845Z,96662.60
2019-02-24T00:08:15.410Z,96663.11
2019-02-24T00:10:41.816Z,96671.48
2019-02-24T00:13:08.147Z,96667.28
2019-02-24T00:15:34.476Z,96667.41
2019-02-24T00:18:00.748Z,96668.11
2019-02-24T00:20:27.106Z,96671.51
2019-02-24T00:22:53.455Z,96668.35
2019-02-24T00:25:19.825Z,96675.28
2019-02-24T00:27:46.268Z,96675.24
2019-02-24T00:30:12.599Z,96678.08
2019-02-24T00:32:38.962Z,96672.09
2019-02-24T00:35:05.394Z,96668.88
2019-02-24T00:37:31.738Z,96666.33
2019-02-24T00:39:58.075Z,96664.80
2019-02-24T00:42:24.441Z,96668.73
2019-02-24T00:44:50.768Z,96673.34
2019-02-24T00:47:17.110Z,96671.94
2019-02-24T00:49:45.418Z,96667.17
2019-02-24T00:52:11.755Z,96666.83
2019-02-24T00:54:38.084Z,96670.86
2019-02-24T00:57:04.420Z,96670.45
2019-02-24T00:59:30.758Z,96671.73
2019-02-24T01:01:57.133Z,96667.55
2019-02-24T01:04:23.498Z,96669.52
2019-02-24T01:06:49.839Z,96665.11
2019-02-24T01:09:16.327Z,96670.80
2019-02-24T01:11:42.662Z,96661.00
2019-02-24T01:14:09.013Z,96669.58
2019-02-24T01:16:35.376Z,96671.33
2019-02-24T01:19:01.764Z,96663.75
2019-02-24T01:21:28.166Z,96664.84
2019-02-24T01:23:54.492Z,96661.16
2019-02-24T01:26:20.822Z,96665.19
2019-02-24T01:28:47.157Z,96666.38
2019-02-24T01:31:13.523Z,96665.63
2019-02-24T01:33:39.855Z,96657.43
2019-02-24T01:36:06.182Z,96662.87
2019-02-24T01:38:32.557Z,96654.87
2019-02-24T01:40:58.961Z,96652.69
2019-02-24T01:43:25.344Z,96652.41
2019-02-24T01:45:51.778Z,96655.97
2019-02-24T01:48:18.047Z,96658.93
2019-02-24T01:50:44.431Z,96662.23
2019-02-24T01:53:10.791Z,96657.56
2019-02-24T01:55:37.193Z,96658.84
2019-02-24T01:58:03.588Z,96650.66
2019-02-24T02:00:29.903Z,96656.19
2019-02-24T02:02:56.235Z,96645.38
2019-02-24T02:05:22.597Z,96647.93
2019-02-24T02:07:48.930Z,96644.97
2019-02-24T02:10:15.279Z,96646.92
2019-02-24T02:12:41.612Z,96654.16
2019-02-24T02:15:07.991Z,96643.06
2019-02-24T02:17:36.867Z,96642.22
2019-02-24T02:20:03.199Z,96637.52
2019-02-24T02:22:29.674Z,96630.41
2019-02-24T02:24:55.971Z,96622.84
2019-02-24T02:27:22.368Z,96624.92
2019-02-24T02:29:48.698Z,96623.45
2019-02-24T02:32:15.068Z,96621.91
2019-02-24T02:34:41.475Z,96620.16
2019-02-24T02:37:07.801Z,96617.20
2019-02-24T02:39:34.132Z,96616.42
2019-02-24T02:42:00.476Z,96618.57
2019-02-24T02:44:26.889Z,96626.67
2019-02-24T02:46:53.227Z,96620.62
2019-02-24T02:49:19.595Z,96618.88
2019-02-24T02:51:46.117Z,96616.36
2019-02-24T02:54:12.638Z,96622.27
2019-02-24T02:56:38.968Z,96627.95
2019-02-24T02:59:05.306Z,96625.83
2019-02-24T03:01:31.704Z,96630.38
2019-02-24T03:03:58.072Z,96628.39
2019-02-24T03:06:24.406Z,96627.08
2019-02-24T03:08:50.728Z,96625.40
2019-02-24T03:11:17.081Z,96625.16
2019-02-24T03:13:43.457Z,96623.15
2019-02-24T03:16:09.800Z,96629.77
2019-02-24T03:18:36.136Z,96620.78
2019-02-24T03:21:02.463Z,96619.88
2019-02-24T03:23:28.792Z,96622.63
2019-02-24T03:25:55.131Z,96636.99
2019-02-24T03:28:21.467Z,96631.87
2019-02-24T03:30:47.842Z,96626.83
2019-02-24T03:33:15.588Z,96629.48
2019-02-24T03:35:40.539Z,96637.43
2019-02-24T03:38:07.004Z,96639.14
2019-02-24T03:40:33.330Z,96640.08
2019-02-24T03:42:59.666Z,96636.44
2019-02-24T03:45:25.999Z,96632.67
2019-02-24T03:47:52.333Z,96624.53
2019-02-24T03:50:18.670Z,96621.73
2019-02-24T03:52:45.075Z,96629.30
2019-02-24T03:55:11.413Z,96632.80
2019-02-24T03:57:37.910Z,96622.98
2019-02-24T04:00:04.236Z,96625.44
2019-02-24T04:02:30.596Z,96618.11
2019-02-24T04:04:56.950Z,96633.45
2019-02-24T04:07:23.279Z,96631.33
2019-02-24T04:09:49.606Z,96615.59
2019-02-24T04:12:15.940Z,96620.17
2019-02-24T04:14:42.275Z,96621.08
2019-02-24T04:17:08.606Z,96617.67
2019-02-24T04:19:34.954Z,96614.41
2019-02-24T04:22:01.339Z,96618.98
2019-02-24T04:24:27.688Z,96614.47
2019-02-24T04:26:54.030Z,96608.52
2019-02-24T04:29:24.865Z,96613.88
2019-02-24T04:31:46.795Z,96608.77
2019-02-24T04:34:13.110Z,96606.31
2019-02-24T04:36:39.507Z,96607.59
2019-02-24T04:39:05.837Z,96614.03
2019-02-24T04:41:32.168Z,96608.92
2019-02-24T04:43:58.546Z,96607.28
2019-02-24T04:46:24.842Z,96604.38
2019-02-24T04:48:51.188Z,96603.63
2019-02-24T04:51:17.513Z,96595.50
2019-02-24T04:53:43.901Z,96597.25
2019-02-24T04:56:10.272Z,96598.65
2019-02-24T04:58:36.662Z,96597.96
2019-02-24T05:01:03.014Z,96600.11
2019-02-24T05:03:29.381Z,96597.45
2019-02-24T05:05:55.721Z,96601.80
2019-02-24T05:08:22.050Z,96602.42
2019-02-24T05:10:48.380Z,96601.58
2019-02-24T05:13:14.715Z,96610.08
2019-02-24T05:15:41.089Z,96616.06
2019-02-24T05:18:07.466Z,96624.47
2019-02-24T05:20:33.874Z,96629.08
2019-02-24T05:23:00.194Z,96630.45
2019-02-24T05:25:26.536Z,96634.38
2019-02-24T05:27:52.978Z,96634.84
2019-02-24T05:30:19.360Z,96635.62
2019-02-24T05:32:45.691Z,96642.36
2019-02-24T05:35:12.021Z,96645.41
2019-02-24T05:37:38.351Z,96650.45
2019-02-24T05:40:04.729Z,96657.37
2019-02-24T05:42:31.171Z,96657.48
2019-02-24T05:44:57.496Z,96656.97
2019-02-24T05:47:23.904Z,96659.11
2019-02-24T05:49:50.461Z,96652.98
2019-02-24T05:52:16.814Z,96656.19
2019-02-24T05:54:43.167Z,96661.86
2019-02-24T05:57:09.502Z,96663.52
2019-02-24T05:59:36.004Z,96660.55
2019-02-24T06:02:02.393Z,96665.88
2019-02-24T06:04:28.717Z,96665.75
2019-02-24T06:06:55.050Z,96665.05
2019-02-24T06:09:21.399Z,96665.36
2019-02-24T06:11:47.726Z,96663.91
2019-02-24T06:14:14.125Z,96674.05
2019-02-24T06:16:40.421Z,96668.77
2019-02-24T06:19:06.862Z,96672.84
2019-02-24T06:21:33.201Z,96676.97
2019-02-24T06:23:59.536Z,96678.53
2019-02-24T06:26:25.908Z,96679.67
2019-02-24T06:28:52.239Z,96677.81
2019-02-24T06:31:18.597Z,96688.02
2019-02-24T06:33:44.928Z,96684.41
2019-02-24T06:36:11.294Z,96686.50
2019-02-24T06:38:37.687Z,96683.43
2019-02-24T06:41:04.044Z,96681.17
2019-02-24T06:43:30.387Z,96680.22
2019-02-24T06:45:56.719Z,96677.56
2019-02-24T06:48:23.063Z,96679.17
2019-02-24T06:50:49.408Z,96682.88
2019-02-24T06:53:15.781Z,96675.48
2019-02-24T06:55:42.116Z,96679.59
2019-02-24T06:58:08.487Z,96684.23
2019-02-24T07:00:34.820Z,96690.90
2019-02-24T07:03:01.149Z,96688.16
2019-02-24T07:05:27.508Z,96693.65
2019-02-24T07:07:53.886Z,96695.63
2019-02-24T07:10:20.223Z,96697.17
2019-02-24T07:12:46.625Z,96702.58
2019-02-24T07:15:12.893Z,96702.69
2019-02-24T07:17:39.222Z,96703.83
2019-02-24T07:20:05.561Z,96704.19
2019-02-24T07:22:31.928Z,96701.70
2019-02-24T07:24:58.244Z,96696.18
2019-02-24T07:27:24.608Z,96700.35
2019-02-24T07:29:50.985Z,96697.45
2019-02-24T07:32:17.315Z,96691.39
2019-02-24T07:34:43.666Z,96695.19
2019-02-24T07:37:12.993Z,96690.95
2019-02-24T07:39:36.466Z,96696.03
2019-02-24T07:42:02.792Z,96697.20
2019-02-24T07:44:29.133Z,96694.20
2019-02-24T07:46:55.426Z,96700.16
2019-02-24T07:49:21.787Z,96700.49
2019-02-24T07:51:48.163Z,96697.53
2019-02-24T07:54:14.493Z,96693.25
2019-02-24T07:56:40.888Z,96695.38
2019-02-24T07:59:07.216Z,96697.53
2019-02-24T08:01:33.616Z,96695.70
2019-02-24T08:04:00.036Z,96697.27
2019-02-24T08:06:26.300Z,96697.09
2019-02-24T08:08:52.638Z,96699.32
2019-02-24T08:11:19.027Z,96700.67
2019-02-24T08:13:45.356Z,96698.55
2019-02-24T08:16:11.696Z,96696.43
2019-02-24T08:18:38.036Z,96690.14
2019-02-24T08:21:04.430Z,96694.09
2019-02-24T08:23:30.765Z,96691.13
2019-02-24T08:25:57.209Z,96686.52
2019-02-24T08:28:23.528Z,96688.56
2019-02-24T08:30:49.873Z,96687.62
2019-02-24T08:33:16.250Z,96686.41
2019-02-24T08:35:42.579Z,96683.00
2019-02-24T08:38:08.956Z,96683.05
2019-02-24T08:40:35.297Z,96681.33
2019-02-24T08:43:01.677Z,96684.84
2019-02-24T08:45:28.012Z,96688.67
2019-02-24T08:47:54.340Z,96680.11
2019-02-24T08:50:20.674Z,96681.44
2019-02-24T08:52:47.030Z,96678.55
2019-02-24T08:55:13.447Z,96676.86
2019-02-24T08:57:39.794Z,96678.14
2019-02-24T09:00:06.123Z,96679.49
2019-02-24T09:02:32.520Z,96682.94
2019-02-24T09:04:58.899Z,96675.77
2019-02-24T09:07:25.212Z,96670.28
2019-02-24T09:09:51.689Z,96675.88
2019-02-24T09:12:18.041Z,96665.23
2019-02-24T09:14:44.429Z,96673.75
2019-02-24T09:17:10.760Z,96669.17
2019-02-24T09:19:37.086Z,96673.05
2019-02-24T09:22:03.442Z,96668.45
2019-02-24T09:24:29.881Z,96670.61
2019-02-24T09:26:56.288Z,96662.48
2019-02-24T09:29:22.617Z,96658.64
2019-02-24T09:31:48.966Z,96658.20
2019-02-24T09:34:15.402Z,96662.16
2019-02-24T09:36:41.751Z,96656.23
2019-02-24T09:39:08.073Z,96663.54
2019-02-24T09:41:34.454Z,96662.19
2019-02-24T09:44:00.783Z,96661.83
2019-02-24T09:46:28.237Z,96663.54
2019-02-24T09:48:53.425Z,96662.30
2019-02-24T09:51:19.854Z,96657.73
2019-02-24T09:53:46.125Z,96653.45
2019-02-24T09:56:12.587Z,96652.12
2019-02-24T09:58:38.926Z,96646.94
2019-02-24T10:01:10.743Z,96645.73
2019-02-24T10:03:31.591Z,96644.05
2019-02-24T10:05:57.918Z,96643.20
2019-02-24T10:08:24.332Z,96632.59
2019-02-24T10:10:50.680Z,96635.59
2019-02-24T10:13:17.047Z,96626.97
2019-02-24T10:15:43.529Z,96627.84
2019-02-24T10:18:09.871Z,96616.84
2019-02-24T10:20:36.206Z,96614.28
2019-02-24T10:23:02.530Z,96612.13
2019-02-24T10:25:28.930Z,96604.48
2019-02-24T10:27:55.316Z,96600.75
2019-02-24T10:30:21.716Z,96594.64
2019-02-24T10:32:48.044Z,96588.69
2019-02-24T10:35:14.421Z,96587.33
2019-02-24T10:37:40.788Z,96584.40
2019-02-24T10:40:07.122Z,96577.64
2019-02-24T10:42:33.456Z,96578.99
2019-02-24T10:44:59.785Z,96573.98
2019-02-24T10:47:26.292Z,96570.36
2019-02-24T10:49:52.600Z,96571.64
2019-02-24T10:52:18.941Z,96571.24
2019-02-24T10:54:45.310Z,96565.75
2019-02-24T10:57:12.974Z,96567.08
2019-02-24T10:59:38.098Z,96561.59
2019-02-24T11:02:04.427Z,96563.67
2019-02-24T11:04:30.837Z,96559.80
2019-02-24T11:06:57.119Z,96554.60
2019-02-24T11:09:23.623Z,96549.12
2019-02-24T11:11:49.969Z,96547.00
2019-02-24T11:14:16.368Z,96545.39
2019-02-24T11:16:42.693Z,96541.98
2019-02-24T11:19:08.961Z,96543.31
2019-02-24T11:21:35.292Z,96541.55
2019-02-24T11:24:01.696Z,96533.51
2019-02-24T11:26:28.014Z,96532.92
2019-02-24T11:28:54.367Z,96534.64
2019-02-24T11:31:20.699Z,96537.52
2019-02-24T11:33:47.031Z,96534.64
2019-02-24T11:36:13.358Z,96523.19
2019-02-24T11:38:39.726Z,96518.11
2019-02-24T11:41:06.058Z,96516.80
2019-02-24T11:43:32.457Z,96515.99
2019-02-24T11:45:58.830Z,96512.99
2019-02-24T11:48:25.158Z,96510.32
2019-02-24T11:50:51.476Z,96503.88
2019-02-24T11:53:17.767Z,96503.88
2019-02-24T11:55:44.085Z,96504.65
2019-02-24T11:58:10.423Z,96495.69
2019-02-24T12:00:36.798Z,96496.97
2019-02-24T12:03:03.143Z,96492.25
2019-02-24T12:05:29.473Z,96490.13
2019-02-24T12:07:55.821Z,96488.84
2019-02-24T12:10:22.241Z,96487.45
2019-02-24T12:12:48.710Z,96485.22
2019-02-24T12:15:15.089Z,96481.33
2019-02-24T12:17:41.434Z,96476.58
2019-02-24T12:20:08.025Z,96473.58
2019-02-24T12:22:34.355Z,96468.53
2019-02-24T12:25:00.717Z,96467.18
2019-02-24T12:27:27.053Z,96467.25
2019-02-24T12:29:53.398Z,96465.97
2019-02-24T12:32:19.725Z,96464.70
2019-02-24T12:34:46.091Z,96469.34
2019-02-24T12:37:12.445Z,96467.18
2019-02-24T12:39:38.807Z,96468.86
2019-02-24T12:42:05.104Z,96474.46
2019-02-24T12:44:31.439Z,96470.58
2019-02-24T12:46:57.802Z,96469.70
2019-02-24T12:49:24.142Z,96466.30
2019-02-24T12:51:50.476Z,96459.38
2019-02-24T12:54:16.805Z,96468.34
2019-02-24T12:56:43.135Z,96462.78
2019-02-24T12:59:09.520Z,96464.06
2019-02-24T13:01:35.851Z,96464.06
2019-02-24T13:04:02.188Z,96458.50
2019-02-24T13:06:28.528Z,96464.02
2019-02-24T13:08:54.879Z,96459.38
2019-02-24T13:11:21.239Z,96458.61
2019-02-24T13:13:47.553Z,96460.73
2019-02-24T13:16:13.909Z,96459.94
2019-02-24T13:18:40.287Z,96462.06
2019-02-24T13:21:06.629Z,96461.34
2019-02-24T13:23:32.977Z,96462.62
2019-02-24T13:25:59.318Z,96462.62
2019-02-24T13:28:25.655Z,96459.61
2019-02-24T13:30:52.088Z,96458.78
2019-02-24T13:33:18.420Z,96459.30
2019-02-24T13:35:44.839Z,96459.34
2019-02-24T13:38:11.164Z,96464.09
2019-02-24T13:40:37.476Z,96459.85
2019-02-24T13:43:03.776Z,96461.90
2019-02-24T13:45:30.284Z,96457.30
2019-02-24T13:47:56.638Z,96459.45
2019-02-24T13:50:23.031Z,96459.02
2019-02-24T13:52:49.370Z,96462.53
2019-02-24T13:55:15.711Z,96463.30
2019-02-24T13:57:42.061Z,96458.80
2019-02-24T14:00:08.538Z,96457.81
2019-02-24T14:02:35.008Z,96461.25
2019-02-24T14:05:01.306Z,96460.02
2019-02-24T14:07:27.659Z,96458.01
2019-02-24T14:09:53.933Z,96463.41
2019-02-24T14:12:20.255Z,96457.81
2019-02-24T14:14:49.070Z,96461.12
2019-02-24T14:17:12.981Z,96458.29
2019-02-24T14:19:39.311Z,96453.85
2019-02-24T14:22:05.767Z,96451.29
2019-02-24T14:24:32.222Z,96450.94
2019-02-24T14:26:58.552Z,96451.70
2019-02-24T14:29:24.874Z,96451.05
2019-02-24T14:31:51.200Z,96455.62
2019-02-24T14:34:17.543Z,96456.22
2019-02-24T14:36:43.946Z,96455.42
2019-02-24T14:39:10.227Z,96456.22
2019-02-24T14:41:36.558Z,96458.55
2019-02-24T14:44:02.880Z,96453.70
2019-02-24T14:46:29.218Z,96457.98
2019-02-24T14:48:55.553Z,96452.94
2019-02-24T14:51:21.894Z,96457.22
2019-02-24T14:53:48.221Z,96451.66
2019-02-24T14:56:14.551Z,96447.81
2019-02-24T14:58:40.897Z,96452.50
2019-02-24T15:01:07.248Z,96449.46
2019-02-24T15:03:33.632Z,96453.77
2019-02-24T15:06:00.042Z,96444.73
2019-02-24T15:08:26.373Z,96442.58
2019-02-24T15:10:52.702Z,96440.02
2019-02-24T15:13:19.031Z,96443.90
2019-02-24T15:15:45.364Z,96438.73
2019-02-24T15:18:11.689Z,96439.17
2019-02-24T15:20:38.019Z,96437.85
2019-02-24T15:23:04.417Z,96441.22
2019-02-24T15:25:30.748Z,96442.97
2019-02-24T15:27:57.090Z,96439.58
2019-02-24T15:30:23.431Z,96442.50
2019-02-24T15:32:51.896Z,96443.34
2019-02-24T15:35:16.110Z,96443.02
2019-02-24T15:37:42.492Z,96443.41
2019-02-24T15:40:08.782Z,96438.22
2019-02-24T15:42:35.157Z,96443.34
2019-02-24T15:45:01.445Z,96444.62
2019-02-24T15:47:27.793Z,96437.78
2019-02-24T15:49:54.149Z,96436.94
2019-02-24T15:52:20.481Z,96438.30
2019-02-24T15:54:46.867Z,96437.85
2019-02-24T15:57:13.193Z,96442.06
2019-02-24T15:59:39.553Z,96448.46
2019-02-24T16:02:05.905Z,96454.02
2019-02-24T16:04:32.260Z,96448.53
2019-02-24T16:06:58.596Z,96451.09
2019-02-24T16:09:24.950Z,96455.38
2019-02-24T16:11:51.432Z,96450.30
2019-02-24T16:14:17.776Z,96454.98
2019-02-24T16:16:44.120Z,96457.86
2019-02-24T16:19:10.468Z,96450.70
2019-02-24T16:21:36.802Z,96456.27
2019-02-24T16:24:03.129Z,96458.82
2019-02-24T16:26:29.466Z,96463.50
2019-02-24T16:28:55.793Z,96459.66
2019-02-24T16:31:22.126Z,96469.06
2019-02-24T16:33:48.510Z,96476.50
2019-02-24T16:36:14.841Z,96474.39
2019-02-24T16:38:41.297Z,96475.86
2019-02-24T16:41:07.653Z,96475.58
2019-02-24T16:43:34.022Z,96480.27
2019-02-24T16:46:00.417Z,96478.81
2019-02-24T16:48:26.733Z,96476.77
2019-02-24T16:50:53.067Z,96475.17
2019-02-24T16:53:19.410Z,96483.41
2019-02-24T16:55:45.807Z,96486.45
2019-02-24T16:58:12.348Z,96479.20
2019-02-24T17:00:38.701Z,96483.12
2019-02-24T17:03:05.072Z,96483.16
2019-02-24T17:05:31.533Z,96486.23
2019-02-24T17:07:57.975Z,96487.23
2019-02-24T17:10:24.322Z,96490.23
2019-02-24T17:12:50.700Z,96491.19
2019-02-24T17:15:17.046Z,96485.22
2019-02-24T17:17:43.375Z,96491.62
2019-02-24T17:20:09.815Z,96487.06
2019-02-24T17:22:36.095Z,96487.89
2019-02-24T17:25:02.463Z,96485.78
2019-02-24T17:27:30.053Z,96487.13
2019-02-24T17:29:55.268Z,96488.41
2019-02-24T17:32:21.612Z,96479.45
2019-02-24T17:34:48.004Z,96484.69
2019-02-24T17:37:20.102Z,96477.38
2019-02-24T17:39:40.659Z,96477.96
2019-02-24T17:42:07.059Z,96477.96
2019-02-24T17:44:33.543Z,96472.88
2019-02-24T17:46:59.891Z,96478.41
2019-02-24T17:49:26.258Z,96475.88
2019-02-24T17:51:52.592Z,96479.72
2019-02-24T17:54:18.931Z,96477.56
2019-02-24T17:56:45.314Z,96480.63
2019-02-24T17:59:11.614Z,96485.75
2019-02-24T18:01:37.997Z,96486.19
2019-02-24T18:04:04.362Z,96487.03
2019-02-24T18:06:30.710Z,96486.95
2019-02-24T18:08:57.104Z,96488.86
2019-02-24T18:11:23.509Z,96500.63
2019-02-24T18:13:49.877Z,96500.30
2019-02-24T18:16:16.246Z,96499.90
2019-02-24T18:18:42.659Z,96501.25
2019-02-24T18:21:09.004Z,96513.53
2019-02-24T18:23:35.334Z,96507.14
2019-02-24T18:26:01.680Z,96512.36
2019-02-24T18:28:28.047Z,96511.05
2019-02-24T18:30:54.405Z,96507.76
2019-02-24T18:33:20.813Z,96504.77
2019-02-24T18:35:47.132Z,96503.09
2019-02-24T18:38:13.527Z,96497.09
2019-02-24T18:40:39.883Z,96501.38
2019-02-24T18:43:06.212Z,96501.55
2019-02-24T18:45:32.602Z,96503.70
2019-02-24T18:47:58.951Z,96502.72
2019-02-24T18:50:25.285Z,96509.59
2019-02-24T18:52:51.657Z,96513.43
2019-02-24T18:55:17.995Z,96512.73
2019-02-24T18:57:44.376Z,96511.89
2019-02-24T19:00:10.736Z,96517.37
2019-02-24T19:02:37.136Z,96515.28
2019-02-24T19:05:03.488Z,96518.22
2019-02-24T19:07:29.822Z,96510.21
2019-02-24T19:09:56.194Z,96517.45
2019-02-24T19:12:22.536Z,96514.05
2019-02-24T19:14:48.922Z,96515.28
2019-02-24T19:17:15.330Z,96520.41
2019-02-24T19:19:41.677Z,96517.00
2019-02-24T19:22:08.059Z,96514.45
2019-02-24T19:24:34.568Z,96524.57
2019-02-24T19:27:00.949Z,96517.00
2019-02-24T19:29:27.297Z,96523.00
2019-02-24T19:31:53.745Z,96519.60
2019-02-24T19:34:20.043Z,96517.48
2019-02-24T19:36:46.374Z,96510.21
2019-02-24T19:39:12.762Z,96520.84
2019-02-24T19:41:39.082Z,96520.15
2019-02-24T19:44:05.462Z,96520.59
2019-02-24T19:46:31.894Z,96519.67
2019-02-24T19:48:58.178Z,96516.31
2019-02-24T19:51:24.501Z,96510.91
2019-02-24T19:53:50.879Z,96512.11
2019-02-24T19:56:17.255Z,96507.14
2019-02-24T19:58:43.604Z,96507.54
2019-02-24T20:01:09.978Z,96502.06
2019-02-24T20:03:36.353Z,96505.13
2019-02-24T20:06:02.669Z,96503.95
2019-02-24T20:08:29.030Z,96495.95
2019-02-24T20:10:55.351Z,96495.84
2019-02-24T20:13:21.671Z,96499.28
2019-02-24T20:15:48.059Z,96505.27
2019-02-24T20:18:14.505Z,96495.88
2019-02-24T20:20:40.823Z,96496.72
2019-02-24T20:23:07.196Z,96499.35
2019-02-24T20:25:33.609Z,96495.05
2019-02-24T20:27:59.987Z,96502.82
2019-02-24T20:30:26.308Z,96500.27
2019-02-24T20:32:52.635Z,96501.61
2019-02-24T20:35:18.965Z,96498.22
2019-02-24T20:37:45.310Z,96504.17
2019-02-24T20:40:11.699Z,96503.84
2019-02-24T20:42:38.041Z,96514.94
2019-02-24T20:45:04.478Z,96510.23
2019-02-24T20:47:30.807Z,96507.70
2019-02-24T20:49:57.157Z,96512.31
2019-02-24T20:52:23.546Z,96512.09
2019-02-24T20:54:49.909Z,96517.70
2019-02-24T20:57:16.230Z,96517.70
2019-02-24T20:59:42.579Z,96510.37
2019-02-24T21:02:08.969Z,96509.53
2019-02-24T21:04:35.350Z,96505.41
2019-02-24T21:07:01.688Z,96505.50
2019-02-24T21:09:28.057Z,96502.91
2019-02-24T21:11:54.384Z,96508.46
2019-02-24T21:14:20.747Z,96506.64
2019-02-24T21:16:47.117Z,96505.06
2019-02-24T21:19:13.461Z,96502.62
2019-02-24T21:21:39.804Z,96494.95
2019-02-24T21:24:06.190Z,96501.34
2019-02-24T21:26:32.513Z,96499.77
2019-02-24T21:28:58.915Z,96495.75
2019-02-24T21:31:25.205Z,96499.11
2019-02-24T21:33:51.537Z,96496.73
2019-02-24T21:36:17.931Z,96496.73
2019-02-24T21:38:44.300Z,96495.28
2019-02-24T21:41:10.631Z,96494.73
2019-02-24T21:43:37.076Z,96493.86
2019-02-24T21:46:03.435Z,96495.34
2019-02-24T21:48:29.814Z,96486.98
2019-02-24T21:50:56.167Z,96489.50
2019-02-24T21:53:22.502Z,96492.89
2019-02-24T21:55:48.835Z,96490.23
2019-02-24T21:58:15.390Z,96486.98
2019-02-24T22:00:41.825Z,96493.11
2019-02-24T22:03:08.184Z,96500.77
2019-02-24T22:05:34.529Z,96497.41
2019-02-24T22:08:00.863Z,96503.91
2019-02-24T22:10:29.406Z,96506.77
2019-02-24T22:12:55.754Z,96503.43
2019-02-24T22:15:22.105Z,96508.98
2019-02-24T22:17:48.468Z,96500.07
2019-02-24T22:20:14.827Z,96507.37
2019-02-24T22:22:41.234Z,96506.90
2019-02-24T22:25:07.646Z,96513.36
2019-02-24T22:27:33.995Z,96513.29
2019-02-24T22:30:00.332Z,96514.09
2019-02-24T22:32:26.680Z,96514.30
2019-02-24T22:34:54.082Z,96511.23
2019-02-24T22:37:19.416Z,96518.13
2019-02-24T22:39:45.752Z,96512.55
2019-02-24T22:42:12.132Z,96519.00
2019-02-24T22:44:38.550Z,96521.12
2019-02-24T22:47:04.929Z,96516.05
2019-02-24T22:49:31.270Z,96522.50
2019-02-24T22:51:57.725Z,96524.63
2019-02-24T22:54:24.095Z,96525.05
2019-02-24T22:56:50.422Z,96528.89
2019-02-24T22:59:16.769Z,96517.59
2019-02-24T23:01:43.131Z,96518.06
2019-02-24T23:04:09.570Z,96517.83
2019-02-24T23:06:36.029Z,96514.84
2019-02-24T23:09:02.394Z,96516.95
2019-02-24T23:11:28.748Z,96511.78
2019-02-24T23:13:55.121Z,96513.59
2019-02-24T23:16:21.482Z,96512.11
2019-02-24T23:18:47.867Z,96511.74
2019-02-24T23:21:14.202Z,96510.91
2019-02-24T23:23:40.551Z,96510.40
2019-02-24T23:26:06.901Z,96503.67
2019-02-24T23:28:33.267Z,96503.17
2019-02-24T23:30:59.640Z,96507.84
2019-02-24T23:33:25.983Z,96496.85
2019-02-24T23:35:52.312Z,96505.83
2019-02-24T23:38:18.718Z,96504.28
2019-02-24T23:40:45.015Z,96503.37
2019-02-24T23:43:11.429Z,96500.38
2019-02-24T23:45:37.837Z,96500.48
2019-02-24T23:48:04.115Z,96504.62
2019-02-24T23:50:30.451Z,96503.47
2019-02-24T23:52:56.782Z,96503.00
2019-02-24T23:55:23.173Z,96507.73
2019-02-24T23:57:49.533Z,96508.34
